createdAt,value
2023-06-15T00:00:08.651Z,17.80
2023-06-15T00:01:13.087Z,17.82
2023-06-15T00:02:16.554Z,17.82
2023-06-15T00:03:19.147Z,17.82
2023-06-15T00:04:22.636Z,17.82
2023-06-15T00:05:24.878Z,17.81
2023-06-15T00:06:28.905Z,17.81
2023-06-15T00:07:31.339Z,17.80
2023-06-15T00:08:35.602Z,17.80
2023-06-15T00:09:37.845Z,17.79
2023-06-15T00:10:42.372Z,17.79
2023-06-15T00:11:44.783Z,17.78
2023-06-15T00:12:47.896Z,17.78
2023-06-15T00:13:50.072Z,17.76
2023-06-15T00:14:53.220Z,17.74
2023-06-15T00:15:55.679Z,17.71
2023-06-15T00:16:58.998Z,17.67
2023-06-15T00:18:01.196Z,17.64
2023-06-15T00:19:05.030Z,17.61
2023-06-15T00:20:09.359Z,17.59
2023-06-15T00:21:14.750Z,17.57
2023-06-15T00:22:16.920Z,17.53
2023-06-15T00:23:20.042Z,17.50
2023-06-15T00:24:22.226Z,17.49
2023-06-15T00:25:25.511Z,17.47
2023-06-15T00:26:29.040Z,17.45
2023-06-15T00:27:32.181Z,17.42
2023-06-15T00:28:34.504Z,17.38
2023-06-15T00:29:37.680Z,17.36
2023-06-15T00:30:39.828Z,17.34
2023-06-15T00:31:43.052Z,17.33
2023-06-15T00:32:45.856Z,17.32
2023-06-15T00:33:49.038Z,17.31
2023-06-15T00:34:51.230Z,17.32
2023-06-15T00:35:54.376Z,17.32
2023-06-15T00:36:56.557Z,17.33
2023-06-15T00:37:59.768Z,17.34
2023-06-15T00:39:02.026Z,17.35
2023-06-15T00:40:07.245Z,17.36
2023-06-15T00:41:09.747Z,17.37
2023-06-15T00:42:14.236Z,17.38
2023-06-15T00:43:16.813Z,17.38
2023-06-15T00:44:19.981Z,17.38
2023-06-15T00:45:22.220Z,17.38
2023-06-15T00:46:25.636Z,17.37
2023-06-15T00:47:28.318Z,17.38
2023-06-15T00:48:32.126Z,17.38
2023-06-15T00:49:34.429Z,17.39
2023-06-15T00:50:39.268Z,17.40
2023-06-15T00:51:41.625Z,17.41
2023-06-15T00:52:45.369Z,17.42
2023-06-15T00:53:47.757Z,17.42
2023-06-15T00:54:52.341Z,17.41
2023-06-15T00:55:54.688Z,17.39
2023-06-15T00:56:58.129Z,17.36
2023-06-15T00:58:02.609Z,17.33
2023-06-15T00:59:06.080Z,17.30
2023-06-15T01:00:11.396Z,17.28
2023-06-15T01:01:14.637Z,17.26
2023-06-15T01:02:17.749Z,17.25
2023-06-15T01:03:22.004Z,17.24
2023-06-15T01:04:25.799Z,17.22
2023-06-15T01:05:29.021Z,17.20
2023-06-15T01:06:33.376Z,17.17
2023-06-15T01:07:36.939Z,17.14
2023-06-15T01:08:39.772Z,17.11
2023-06-15T01:09:44.581Z,17.10
2023-06-15T01:10:46.942Z,17.08
2023-06-15T01:11:54.094Z,17.06
2023-06-15T01:12:58.472Z,17.05
2023-06-15T01:14:02.654Z,17.05
2023-06-15T01:15:06.766Z,17.05
2023-06-15T01:16:14.349Z,17.05
2023-06-15T01:17:24.864Z,17.04
2023-06-15T01:18:30.908Z,17.04
2023-06-15T01:19:55.046Z,17.04
2023-06-15T01:20:58.118Z,17.04
2023-06-15T01:22:10.111Z,17.04
2023-06-15T01:23:34.467Z,17.05
2023-06-15T01:24:38.033Z,17.04
2023-06-15T01:25:50.290Z,17.02
2023-06-15T01:26:55.499Z,16.99
2023-06-15T01:28:02.312Z,16.96
2023-06-15T01:29:04.908Z,16.94
2023-06-15T01:30:10.030Z,16.91
2023-06-15T01:31:13.839Z,16.88
2023-06-15T01:32:17.191Z,16.85
2023-06-15T01:33:19.518Z,16.81
2023-06-15T01:34:22.733Z,16.78
2023-06-15T01:35:24.895Z,16.76
2023-06-15T01:36:28.123Z,16.75
2023-06-15T01:37:30.330Z,16.74
2023-06-15T01:38:33.585Z,16.73
2023-06-15T01:39:35.844Z,16.73
2023-06-15T01:40:40.344Z,16.73
2023-06-15T01:41:42.604Z,16.73
2023-06-15T01:42:47.532Z,16.73
2023-06-15T01:43:50.178Z,16.73
2023-06-15T01:44:54.554Z,16.72
2023-06-15T01:45:57.745Z,16.72
2023-06-15T01:47:01.068Z,16.74
2023-06-15T01:48:03.979Z,16.75
2023-06-15T01:49:07.487Z,16.75
2023-06-15T01:50:10.882Z,16.74
2023-06-15T01:51:14.441Z,16.73
2023-06-15T01:52:17.085Z,16.73
2023-06-15T01:53:20.353Z,16.72
2023-06-15T01:54:22.680Z,16.71
2023-06-15T01:55:27.099Z,16.71
2023-06-15T01:56:30.420Z,16.70
2023-06-15T01:57:38.693Z,16.69
2023-06-15T01:58:43.786Z,16.68
2023-06-15T01:59:46.078Z,16.67
2023-06-15T02:00:49.312Z,16.66
2023-06-15T02:01:51.558Z,16.65
2023-06-15T02:02:54.888Z,16.63
2023-06-15T02:03:58.141Z,16.62
2023-06-15T02:05:00.579Z,16.60
2023-06-15T02:06:03.791Z,16.59
2023-06-15T02:07:06.210Z,16.58
2023-06-15T02:08:09.700Z,16.57
2023-06-15T02:09:12.158Z,16.56
2023-06-15T02:10:16.320Z,16.55
2023-06-15T02:11:19.930Z,16.54
2023-06-15T02:12:23.202Z,16.54
2023-06-15T02:13:25.432Z,16.53
2023-06-15T02:14:29.921Z,16.52
2023-06-15T02:15:32.112Z,16.51
2023-06-15T02:16:36.435Z,16.50
2023-06-15T02:17:41.020Z,16.48
2023-06-15T02:18:46.576Z,16.46
2023-06-15T02:19:49.042Z,16.45
2023-06-15T02:20:52.321Z,16.43
2023-06-15T02:21:54.829Z,16.42
2023-06-15T02:22:58.566Z,16.41
2023-06-15T02:24:00.797Z,16.39
2023-06-15T02:25:04.361Z,16.38
2023-06-15T02:26:07.045Z,16.37
2023-06-15T02:27:10.188Z,16.36
2023-06-15T02:28:12.460Z,16.36
2023-06-15T02:29:16.114Z,16.37
2023-06-15T02:30:19.687Z,16.37
2023-06-15T02:31:23.330Z,16.37
2023-06-15T02:32:33.126Z,16.36
2023-06-15T02:33:36.807Z,16.35
2023-06-15T02:34:39.311Z,16.33
2023-06-15T02:35:42.434Z,16.31
2023-06-15T02:36:44.816Z,16.29
2023-06-15T02:37:48.162Z,16.28
2023-06-15T02:38:50.437Z,16.27
2023-06-15T02:39:53.643Z,16.26
2023-06-15T02:40:56.141Z,16.25
2023-06-15T02:41:59.392Z,16.26
2023-06-15T02:43:01.665Z,16.26
2023-06-15T02:44:04.880Z,16.26
2023-06-15T02:45:08.766Z,16.27
2023-06-15T02:46:13.274Z,16.27
2023-06-15T02:47:15.512Z,16.27
2023-06-15T02:48:18.941Z,16.26
2023-06-15T02:49:21.120Z,16.25
2023-06-15T02:50:24.596Z,16.23
2023-06-15T02:51:26.868Z,16.23
2023-06-15T02:52:31.661Z,16.24
2023-06-15T02:53:33.856Z,16.23
2023-06-15T02:54:37.932Z,16.22
2023-06-15T02:55:42.445Z,16.21
2023-06-15T02:56:45.667Z,16.21
2023-06-15T02:57:47.946Z,16.20
2023-06-15T02:58:55.657Z,16.21
2023-06-15T02:59:58.257Z,16.22
2023-06-15T03:01:02.029Z,16.22
2023-06-15T03:02:06.049Z,16.21
2023-06-15T03:03:10.793Z,16.21
2023-06-15T03:04:14.992Z,16.21
2023-06-15T03:05:19.794Z,16.21
2023-06-15T03:06:22.346Z,16.21
2023-06-15T03:07:26.544Z,16.20
2023-06-15T03:08:32.943Z,16.19
2023-06-15T03:09:36.316Z,16.18
2023-06-15T03:10:38.508Z,16.18
2023-06-15T03:11:41.635Z,16.18
2023-06-15T03:12:43.797Z,16.18
2023-06-15T03:13:47.660Z,16.17
2023-06-15T03:14:51.607Z,16.15
2023-06-15T03:15:54.964Z,16.14
2023-06-15T03:16:57.142Z,16.12
2023-06-15T03:18:02.554Z,16.10
2023-06-15T03:19:04.903Z,16.08
2023-06-15T03:20:12.087Z,16.07
2023-06-15T03:21:15.830Z,16.05
2023-06-15T03:22:20.008Z,16.05
2023-06-15T03:23:22.251Z,16.04
2023-06-15T03:24:27.054Z,16.04
2023-06-15T03:25:30.844Z,16.04
2023-06-15T03:26:34.454Z,16.05
2023-06-15T03:27:36.656Z,16.06
2023-06-15T03:28:41.083Z,16.07
2023-06-15T03:29:43.344Z,16.07
2023-06-15T03:30:48.197Z,16.07
2023-06-15T03:31:51.714Z,16.08
2023-06-15T03:32:54.902Z,16.09
2023-06-15T03:33:58.471Z,16.09
2023-06-15T03:35:01.660Z,16.10
2023-06-15T03:36:04.398Z,16.11
2023-06-15T03:37:07.751Z,16.12
2023-06-15T03:38:09.951Z,16.14
2023-06-15T03:39:13.315Z,16.16
2023-06-15T03:40:15.437Z,16.19
2023-06-15T03:41:18.605Z,16.21
2023-06-15T03:42:20.733Z,16.23
2023-06-15T03:43:23.862Z,16.24
2023-06-15T03:44:26.218Z,16.25
2023-06-15T03:45:29.366Z,16.27
2023-06-15T03:46:31.648Z,16.28
2023-06-15T03:47:34.748Z,16.30
2023-06-15T03:48:37.706Z,16.31
2023-06-15T03:49:42.236Z,16.32
2023-06-15T03:50:44.464Z,16.34
2023-06-15T03:51:47.723Z,16.35
2023-06-15T03:52:49.864Z,16.36
2023-06-15T03:53:53.021Z,16.37
2023-06-15T03:54:55.180Z,16.38
2023-06-15T03:55:58.497Z,16.40
2023-06-15T03:57:00.681Z,16.41
2023-06-15T03:58:04.306Z,16.43
2023-06-15T03:59:06.491Z,16.44
2023-06-15T04:00:11.984Z,16.46
2023-06-15T04:01:14.217Z,16.47
2023-06-15T04:02:17.513Z,16.49
2023-06-15T04:03:19.895Z,16.51
2023-06-15T04:04:23.225Z,16.52
2023-06-15T04:05:26.866Z,16.54
2023-06-15T04:06:31.023Z,16.56
2023-06-15T04:07:34.185Z,16.58
2023-06-15T04:08:37.721Z,16.60
2023-06-15T04:09:40.013Z,16.61
2023-06-15T04:10:43.255Z,16.63
2023-06-15T04:11:45.723Z,16.65
2023-06-15T04:15:58.331Z,16.75
2023-06-15T04:17:01.460Z,16.79
2023-06-15T04:18:04.968Z,16.81
2023-06-15T04:19:08.591Z,16.87
2023-06-15T04:20:14.787Z,16.91
2023-06-15T04:21:19.071Z,16.94
2023-06-15T04:22:22.201Z,16.98
2023-06-15T04:23:24.456Z,17.01
2023-06-15T04:24:27.671Z,17.03
2023-06-15T04:25:30.370Z,17.05
2023-06-15T04:26:34.210Z,17.06
2023-06-15T04:27:36.537Z,17.08
2023-06-15T04:28:39.778Z,17.10
2023-06-15T04:29:46.723Z,17.12
2023-06-15T04:30:56.217Z,17.14
2023-06-15T04:31:58.841Z,17.16
2023-06-15T04:33:01.977Z,17.17
2023-06-15T04:34:05.927Z,17.20
2023-06-15T04:35:09.421Z,17.22
2023-06-15T04:36:13.425Z,17.23
2023-06-15T04:37:20.045Z,17.25
2023-06-15T04:38:22.304Z,17.25
2023-06-15T04:39:26.843Z,17.27
2023-06-15T04:40:29.157Z,17.29
2023-06-15T04:41:32.465Z,17.32
2023-06-15T04:42:34.741Z,17.34
2023-06-15T04:43:37.892Z,17.36
2023-06-15T04:44:40.036Z,17.36
2023-06-15T04:45:43.116Z,17.37
2023-06-15T04:46:47.727Z,17.38
2023-06-15T04:47:50.938Z,17.39
2023-06-15T04:48:53.190Z,17.41
2023-06-15T04:49:56.416Z,17.42
2023-06-15T04:50:58.814Z,17.44
2023-06-15T04:52:02.808Z,17.45
2023-06-15T04:53:06.350Z,17.46
2023-06-15T04:54:09.702Z,17.49
2023-06-15T04:55:13.194Z,17.51
2023-06-15T04:56:16.380Z,17.53
2023-06-15T04:57:18.530Z,17.55
2023-06-15T04:58:21.710Z,17.57
2023-06-15T04:59:23.889Z,17.59
2023-06-15T05:00:27.141Z,17.60
2023-06-15T05:01:29.370Z,17.62
2023-06-15T05:02:32.540Z,17.65
2023-06-15T05:03:35.379Z,17.66
2023-06-15T05:04:38.692Z,17.69
2023-06-15T05:05:41.025Z,17.71
2023-06-15T05:06:44.345Z,17.72
2023-06-15T05:07:46.591Z,17.73
2023-06-15T05:08:52.209Z,17.75
2023-06-15T05:09:55.179Z,17.77
2023-06-15T05:10:58.494Z,17.82
2023-06-15T05:12:02.433Z,17.85
2023-06-15T05:13:04.695Z,17.87
2023-06-15T05:14:07.900Z,17.89
2023-06-15T05:15:11.591Z,17.91
2023-06-15T05:16:14.039Z,17.93
2023-06-15T05:17:17.245Z,17.95
2023-06-15T05:18:20.534Z,17.96
2023-06-15T05:19:24.079Z,17.98
2023-06-15T05:20:26.215Z,17.99
2023-06-15T05:21:29.353Z,18.01
2023-06-15T05:22:31.500Z,18.03
2023-06-15T05:23:34.739Z,18.05
2023-06-15T05:24:38.317Z,18.06
2023-06-15T05:25:44.332Z,18.07
2023-06-15T05:26:46.551Z,18.08
2023-06-15T05:27:50.402Z,18.09
2023-06-15T05:28:52.740Z,18.11
2023-06-15T05:29:55.998Z,18.13
2023-06-15T05:30:58.392Z,18.14
2023-06-15T05:32:02.073Z,18.15
2023-06-15T05:33:04.524Z,18.18
2023-06-15T05:34:07.907Z,18.20
2023-06-15T05:35:11.687Z,18.22
2023-06-15T05:36:31.628Z,18.25
2023-06-15T05:37:40.504Z,18.29
2023-06-15T05:38:42.728Z,18.32
2023-06-15T05:39:48.424Z,18.35
2023-06-15T05:40:51.704Z,18.38
2023-06-15T05:41:55.044Z,18.42
2023-06-15T05:42:58.385Z,18.49
2023-06-15T05:44:00.809Z,18.55
2023-06-15T05:45:04.555Z,18.59
2023-06-15T05:46:06.803Z,18.62
2023-06-15T05:47:12.097Z,18.67
2023-06-15T05:48:17.632Z,18.71
2023-06-15T05:49:20.992Z,18.75
2023-06-15T05:50:23.302Z,18.79
2023-06-15T05:51:26.406Z,18.82
2023-06-15T05:52:30.284Z,18.86
2023-06-15T05:53:34.089Z,18.92
2023-06-15T05:54:36.354Z,18.96
2023-06-15T05:55:43.558Z,18.99
2023-06-15T05:56:47.693Z,19.03
2023-06-15T05:57:50.949Z,19.02
2023-06-15T05:58:54.072Z,19.08
2023-06-15T05:59:57.252Z,19.15
2023-06-15T06:00:59.601Z,19.21
2023-06-15T06:02:03.103Z,19.24
2023-06-15T06:03:05.725Z,19.28
2023-06-15T06:04:09.056Z,19.31
2023-06-15T06:05:12.258Z,19.34
2023-06-15T06:06:14.809Z,19.39
2023-06-15T06:07:18.040Z,19.42
2023-06-15T06:08:22.492Z,19.45
2023-06-15T06:09:27.969Z,19.48
2023-06-15T06:10:30.182Z,19.51
2023-06-15T06:11:34.707Z,19.53
2023-06-15T06:12:36.877Z,19.57
2023-06-15T06:13:40.153Z,19.59
2023-06-15T06:14:42.348Z,19.62
2023-06-15T06:15:45.809Z,19.64
2023-06-15T06:16:48.034Z,19.68
2023-06-15T06:18:07.815Z,19.70
2023-06-15T06:19:11.525Z,19.72
2023-06-15T06:20:15.144Z,19.74
2023-06-15T06:21:17.377Z,19.76
2023-06-15T06:22:20.688Z,19.78
2023-06-15T06:23:23.197Z,19.80
2023-06-15T06:24:26.406Z,19.82
2023-06-15T06:25:28.582Z,19.86
2023-06-15T06:26:31.780Z,19.91
2023-06-15T06:27:35.317Z,19.94
2023-06-15T06:28:38.468Z,19.96
2023-06-15T06:29:41.978Z,19.99
2023-06-15T06:30:45.179Z,20.01
2023-06-15T06:31:47.412Z,20.05
2023-06-15T06:32:50.711Z,20.07
2023-06-15T06:33:53.106Z,20.09
2023-06-15T06:34:56.433Z,20.12
2023-06-15T06:35:59.644Z,20.16
2023-06-15T06:37:02.793Z,20.19
2023-06-15T06:38:05.139Z,20.22
2023-06-15T06:39:08.319Z,20.25
2023-06-15T06:40:11.149Z,20.28
2023-06-15T06:41:14.306Z,20.30
2023-06-15T06:42:16.696Z,20.32
2023-06-15T06:43:21.269Z,20.35
2023-06-15T06:44:23.476Z,20.39
2023-06-15T06:45:30.105Z,20.43
2023-06-15T06:46:32.770Z,20.46
2023-06-15T06:47:36.175Z,20.49
2023-06-15T06:48:39.205Z,20.51
2023-06-15T06:49:42.369Z,20.54
2023-06-15T06:50:44.594Z,20.58
2023-06-15T06:51:47.719Z,20.62
2023-06-15T06:52:50.904Z,20.66
2023-06-15T06:53:54.503Z,20.71
2023-06-15T06:54:56.724Z,20.75
2023-06-15T06:55:59.866Z,20.77
2023-06-15T06:57:02.726Z,20.80
2023-06-15T06:58:06.425Z,20.83
2023-06-15T06:59:11.502Z,20.86
2023-06-15T07:00:14.855Z,20.88
2023-06-15T07:01:18.020Z,20.91
2023-06-15T07:02:20.830Z,20.94
2023-06-15T07:03:25.192Z,20.97
2023-06-15T07:04:31.672Z,21.00
2023-06-15T07:05:34.065Z,21.04
2023-06-15T07:06:37.374Z,21.07
2023-06-15T07:07:40.016Z,21.11
2023-06-15T07:08:43.517Z,21.14
2023-06-15T07:09:45.787Z,21.18
2023-06-15T07:10:48.969Z,21.21
2023-06-15T07:11:51.175Z,21.22
2023-06-15T07:12:57.094Z,21.24
2023-06-15T07:13:59.508Z,21.26
2023-06-15T07:15:04.113Z,21.28
2023-06-15T07:16:07.613Z,21.31
2023-06-15T07:17:10.822Z,21.33
2023-06-15T07:18:15.809Z,21.35
2023-06-15T07:19:19.241Z,21.38
2023-06-15T07:20:21.438Z,21.39
2023-06-15T07:21:24.649Z,21.41
2023-06-15T07:22:26.830Z,21.42
2023-06-15T07:23:38.326Z,21.44
2023-06-15T07:24:52.068Z,21.46
2023-06-15T07:25:55.534Z,21.46
2023-06-15T07:27:00.280Z,21.48
2023-06-15T07:28:02.631Z,21.51
2023-06-15T07:29:05.960Z,21.53
2023-06-15T07:30:11.388Z,21.55
2023-06-15T07:31:14.516Z,21.57
2023-06-15T07:32:17.023Z,21.60
2023-06-15T07:33:20.947Z,21.63
2023-06-15T07:34:25.179Z,21.65
2023-06-15T07:35:28.410Z,21.68
2023-06-15T07:36:30.879Z,21.71
2023-06-15T07:37:34.103Z,21.75
2023-06-15T07:38:37.481Z,21.78
2023-06-15T07:39:40.702Z,21.81
2023-06-15T07:40:43.176Z,21.82
2023-06-15T07:41:46.370Z,21.84
2023-06-15T07:42:48.564Z,21.87
2023-06-15T07:43:51.760Z,21.90
2023-06-15T07:44:54.000Z,21.92
2023-06-15T07:45:58.654Z,21.94
2023-06-15T07:47:00.941Z,21.96
2023-06-15T07:48:05.469Z,21.98
2023-06-15T07:49:08.323Z,22.01
2023-06-15T07:50:11.933Z,22.04
2023-06-15T07:51:24.173Z,22.07
2023-06-15T07:52:31.861Z,22.10
2023-06-15T07:53:34.422Z,22.14
2023-06-15T07:54:37.672Z,22.18
2023-06-15T07:55:39.935Z,22.21
2023-06-15T07:56:43.539Z,22.25
2023-06-15T07:57:46.884Z,22.27
2023-06-15T07:58:49.260Z,22.30
2023-06-15T07:59:52.492Z,22.33
2023-06-15T08:00:55.737Z,22.36
2023-06-15T08:01:59.347Z,22.40
2023-06-15T08:03:02.796Z,22.44
2023-06-15T08:04:06.825Z,22.48
2023-06-15T08:05:12.097Z,22.52
2023-06-15T08:06:17.338Z,22.54
2023-06-15T08:07:22.008Z,22.57
2023-06-15T08:08:24.153Z,22.60
2023-06-15T08:09:27.552Z,22.63
2023-06-15T08:10:30.841Z,22.65
2023-06-15T08:11:34.038Z,22.66
2023-06-15T08:12:37.343Z,22.68
2023-06-15T08:13:40.074Z,22.70
2023-06-15T08:14:43.286Z,22.71
2023-06-15T08:15:45.678Z,22.73
2023-06-15T08:16:49.645Z,22.74
2023-06-15T08:17:55.271Z,22.76
2023-06-15T08:18:58.449Z,22.79
2023-06-15T08:20:01.384Z,22.81
2023-06-15T08:21:04.599Z,22.84
2023-06-15T08:22:07.258Z,22.87
2023-06-15T08:23:10.353Z,22.90
2023-06-15T08:24:13.753Z,22.93
2023-06-15T08:25:17.113Z,22.96
2023-06-15T08:26:20.305Z,22.99
2023-06-15T08:27:22.480Z,23.01
2023-06-15T08:28:25.851Z,23.04
2023-06-15T08:29:28.065Z,23.06
2023-06-15T08:30:31.221Z,23.07
2023-06-15T08:31:38.563Z,23.10
2023-06-15T08:32:42.683Z,23.13
2023-06-15T08:33:46.338Z,23.16
2023-06-15T08:34:50.382Z,23.18
2023-06-15T08:35:52.710Z,23.21
2023-06-15T08:36:56.260Z,23.23
2023-06-15T08:37:58.442Z,23.26
2023-06-15T08:39:01.864Z,23.28
2023-06-15T08:40:07.504Z,23.29
2023-06-15T08:41:13.751Z,23.31
2023-06-15T08:42:19.370Z,23.34
2023-06-15T08:43:21.890Z,23.37
2023-06-15T08:44:25.233Z,23.39
2023-06-15T08:45:34.094Z,23.41
2023-06-15T08:46:38.239Z,23.43
2023-06-15T08:47:41.338Z,23.45
2023-06-15T08:48:49.478Z,23.46
2023-06-15T08:49:54.466Z,23.48
2023-06-15T08:50:56.731Z,23.51
2023-06-15T08:52:01.122Z,23.53
2023-06-15T08:53:03.585Z,23.55
2023-06-15T08:54:09.653Z,23.57
2023-06-15T08:55:17.203Z,23.59
2023-06-15T08:56:20.927Z,23.62
2023-06-15T08:57:23.311Z,23.64
2023-06-15T08:58:26.700Z,23.65
2023-06-15T08:59:30.462Z,23.67
2023-06-15T09:00:33.775Z,23.70
2023-06-15T09:01:41.653Z,23.72
2023-06-15T09:02:47.683Z,23.75
2023-06-15T09:03:56.413Z,23.76
2023-06-15T09:04:59.957Z,23.78
2023-06-15T09:06:02.473Z,23.79
2023-06-15T09:07:06.575Z,23.81
2023-06-15T09:08:09.213Z,23.82
2023-06-15T09:09:13.512Z,23.84
2023-06-15T09:10:17.206Z,23.86
2023-06-15T09:11:21.192Z,23.87
2023-06-15T09:12:24.743Z,23.89
2023-06-15T09:13:32.671Z,23.91
2023-06-15T09:14:39.988Z,23.93
2023-06-15T09:15:46.873Z,23.93
2023-06-15T09:16:53.598Z,23.94
2023-06-15T09:17:56.955Z,23.95
2023-06-15T09:19:02.413Z,23.96
2023-06-15T09:20:06.654Z,23.98
2023-06-15T09:21:13.425Z,23.99
2023-06-15T09:22:16.814Z,24.01
2023-06-15T09:23:19.276Z,24.02
2023-06-15T09:24:25.655Z,24.04
2023-06-15T09:25:30.140Z,24.06
2023-06-15T09:26:33.627Z,24.06
2023-06-15T09:27:36.012Z,24.07
2023-06-15T09:28:46.862Z,24.09
2023-06-15T09:30:20.565Z,24.11
2023-06-15T09:31:31.720Z,24.14
2023-06-15T09:32:35.691Z,24.19
2023-06-15T09:33:38.918Z,24.22
2023-06-15T09:34:42.743Z,24.23
2023-06-15T09:35:58.548Z,24.22
2023-06-15T09:37:01.544Z,24.24
2023-06-15T09:38:05.320Z,24.25
2023-06-15T09:39:10.417Z,24.28
2023-06-15T09:40:14.464Z,24.30
2023-06-15T09:41:16.921Z,24.31
2023-06-15T09:42:20.837Z,24.33
2023-06-15T09:43:23.772Z,24.35
2023-06-15T09:44:27.804Z,24.37
2023-06-15T09:45:30.573Z,24.39
2023-06-15T09:46:33.775Z,24.41
2023-06-15T09:47:36.367Z,24.43
2023-06-15T09:48:40.302Z,24.45
2023-06-15T09:49:45.967Z,24.48
2023-06-15T09:50:55.210Z,24.50
2023-06-15T09:51:57.671Z,24.52
2023-06-15T09:53:02.687Z,24.54
2023-06-15T09:54:05.793Z,24.55
2023-06-15T09:55:10.609Z,24.57
2023-06-15T09:56:28.688Z,24.59
2023-06-15T09:57:34.121Z,24.61
2023-06-15T09:58:36.808Z,24.63
2023-06-15T09:59:41.377Z,24.64
2023-06-15T10:00:43.981Z,24.65
2023-06-15T10:01:49.657Z,24.68
2023-06-15T10:02:54.845Z,24.71
2023-06-15T10:03:59.145Z,24.74
2023-06-15T10:05:04.759Z,24.77
2023-06-15T10:06:14.434Z,24.79
2023-06-15T10:07:21.367Z,24.81
2023-06-15T10:08:27.373Z,24.82
2023-06-15T10:09:33.614Z,24.83
2023-06-15T10:10:38.805Z,24.86
2023-06-15T10:11:43.036Z,24.88
2023-06-15T10:12:51.059Z,24.90
2023-06-15T10:13:56.174Z,24.92
2023-06-15T10:15:05.961Z,24.95
2023-06-15T10:16:11.925Z,24.99
2023-06-15T10:17:17.470Z,25.03
2023-06-15T10:18:23.464Z,25.07
2023-06-15T10:19:28.978Z,25.11
2023-06-15T10:20:34.770Z,25.14
2023-06-15T10:21:40.021Z,25.18
2023-06-15T10:22:47.658Z,25.22
2023-06-15T10:23:55.438Z,25.26
2023-06-15T10:24:59.129Z,25.29
2023-06-15T10:26:02.076Z,25.32
2023-06-15T10:27:08.574Z,25.36
2023-06-15T10:28:14.133Z,25.39
2023-06-15T10:29:21.513Z,25.42
2023-06-15T10:30:32.630Z,25.44
2023-06-15T10:31:43.697Z,25.47
2023-06-15T10:32:52.465Z,25.49
2023-06-15T10:34:00.399Z,25.52
2023-06-15T10:35:08.766Z,25.54
2023-06-15T10:36:17.157Z,25.57
2023-06-15T10:37:26.119Z,25.60
2023-06-15T10:38:38.081Z,25.63
2023-06-15T10:39:45.657Z,25.65
2023-06-15T10:40:50.885Z,25.67
2023-06-15T10:41:54.272Z,25.69
2023-06-15T10:42:59.261Z,25.71
2023-06-15T10:44:02.734Z,25.73
2023-06-15T10:45:30.607Z,25.74
2023-06-15T10:46:34.932Z,25.76
2023-06-15T10:47:50.124Z,25.77
2023-06-15T10:48:54.486Z,25.79
2023-06-15T10:49:58.470Z,25.80
2023-06-15T10:51:06.688Z,25.81
2023-06-15T10:52:15.224Z,25.83
2023-06-15T10:53:25.154Z,25.84
2023-06-15T10:54:29.627Z,25.85
2023-06-15T10:55:32.786Z,25.87
2023-06-15T10:56:36.216Z,25.87
2023-06-15T10:57:38.614Z,25.89
2023-06-15T10:58:54.698Z,25.89
2023-06-15T10:59:58.630Z,25.88
2023-06-15T11:01:09.863Z,25.87
2023-06-15T11:02:51.193Z,25.84
2023-06-15T11:03:55.421Z,25.80
2023-06-15T11:05:10.826Z,25.79
2023-06-15T11:06:19.435Z,25.77
2023-06-15T11:07:29.913Z,25.75
2023-06-15T11:08:35.621Z,25.75
2023-06-15T11:09:42.523Z,25.72
2023-06-15T11:10:44.991Z,25.72
2023-06-15T11:11:48.268Z,25.73
2023-06-15T11:13:00.325Z,25.72
2023-06-15T11:14:07.908Z,25.69
2023-06-15T11:15:16.446Z,25.67
2023-06-15T11:16:26.846Z,25.64
2023-06-15T11:17:30.250Z,25.63
2023-06-15T11:18:32.614Z,25.61
2023-06-15T11:19:44.467Z,25.60
2023-06-15T11:21:00.970Z,25.60
2023-06-15T11:22:08.256Z,25.60
2023-06-15T11:23:13.611Z,25.59
2023-06-15T11:24:19.040Z,25.58
2023-06-15T11:25:29.542Z,25.60
2023-06-15T11:26:50.326Z,25.61
2023-06-15T11:27:56.651Z,25.61
2023-06-15T11:29:03.786Z,25.61
2023-06-15T11:30:09.708Z,25.61
2023-06-15T11:31:13.324Z,25.62
2023-06-15T11:32:15.634Z,25.64
2023-06-15T11:33:28.243Z,25.68
2023-06-15T11:34:31.855Z,25.72
2023-06-15T11:35:34.012Z,25.73
2023-06-15T11:36:38.902Z,25.74
2023-06-15T11:37:42.093Z,25.76
2023-06-15T11:38:45.629Z,25.78
2023-06-15T11:39:48.881Z,25.80
2023-06-15T11:40:51.281Z,25.84
2023-06-15T11:41:57.452Z,25.86
2023-06-15T11:43:00.168Z,25.89
2023-06-15T11:44:03.465Z,25.91
2023-06-15T11:45:06.618Z,25.93
2023-06-15T11:46:13.628Z,25.94
2023-06-15T11:47:15.793Z,25.94
2023-06-15T11:48:19.087Z,25.92
2023-06-15T11:49:22.840Z,25.92
2023-06-15T11:50:25.215Z,25.94
2023-06-15T11:51:28.528Z,25.95
2023-06-15T11:52:31.702Z,25.96
2023-06-15T11:53:34.484Z,25.98
2023-06-15T11:54:50.133Z,25.98
2023-06-15T11:55:56.052Z,25.97
2023-06-15T11:56:58.687Z,25.97
2023-06-15T11:58:01.989Z,25.99
2023-06-15T11:59:04.384Z,26.01
2023-06-15T12:00:09.378Z,26.03
2023-06-15T12:01:13.232Z,26.05
2023-06-15T12:02:18.090Z,26.07
2023-06-15T12:03:20.512Z,26.08
2023-06-15T12:04:23.858Z,26.09
2023-06-15T12:05:26.364Z,26.08
2023-06-15T12:06:31.171Z,26.09
2023-06-15T12:07:38.547Z,26.11
2023-06-15T12:08:42.731Z,26.11
2023-06-15T12:09:47.441Z,26.10
2023-06-15T12:10:50.093Z,26.12
2023-06-15T12:11:55.443Z,26.13
2023-06-15T12:12:59.553Z,26.14
2023-06-15T12:14:03.050Z,26.14
2023-06-15T12:15:08.067Z,26.16
2023-06-15T12:16:12.655Z,26.17
2023-06-15T12:17:16.806Z,26.17
2023-06-15T12:18:20.379Z,26.18
2023-06-15T12:19:23.524Z,26.18
2023-06-15T12:20:28.694Z,26.19
2023-06-15T12:21:33.694Z,26.20
2023-06-15T12:22:37.958Z,26.20
2023-06-15T12:23:41.533Z,26.19
2023-06-15T12:24:43.764Z,26.19
2023-06-15T12:25:49.589Z,26.20
2023-06-15T12:26:52.881Z,26.21
2023-06-15T12:27:56.396Z,26.21
2023-06-15T12:28:58.571Z,26.22
2023-06-15T12:30:15.446Z,26.22
2023-06-15T12:31:17.797Z,26.23
2023-06-15T12:32:24.827Z,26.25
2023-06-15T12:33:28.816Z,26.26
2023-06-15T12:34:32.493Z,26.27
2023-06-15T12:35:38.779Z,26.28
2023-06-15T12:36:42.601Z,26.28
2023-06-15T12:37:50.501Z,26.28
2023-06-15T12:38:54.223Z,26.29
2023-06-15T12:39:56.534Z,26.31
2023-06-15T12:41:01.984Z,26.31
2023-06-15T12:42:05.585Z,26.30
2023-06-15T12:43:08.141Z,26.29
2023-06-15T12:44:11.585Z,26.30
2023-06-15T12:45:14.911Z,26.32
2023-06-15T12:46:18.495Z,26.34
2023-06-15T12:47:20.753Z,26.34
2023-06-15T12:48:24.260Z,26.36
2023-06-15T12:49:26.473Z,26.37
2023-06-15T12:50:31.034Z,26.38
2023-06-15T12:51:34.295Z,26.39
2023-06-15T12:52:36.457Z,26.40
2023-06-15T12:53:39.679Z,26.41
2023-06-15T12:54:41.837Z,26.42
2023-06-15T12:55:45.452Z,26.42
2023-06-15T12:56:50.098Z,26.40
2023-06-15T12:57:55.533Z,26.40
2023-06-15T12:58:59.115Z,26.40
2023-06-15T13:00:01.291Z,26.41
2023-06-15T13:01:05.059Z,26.42
2023-06-15T13:02:08.573Z,26.43
2023-06-15T13:03:13.167Z,26.43
2023-06-15T13:04:15.710Z,26.46
2023-06-15T13:05:19.423Z,26.50
2023-06-15T13:06:22.649Z,26.51
2023-06-15T13:07:25.623Z,26.54
2023-06-15T13:08:28.961Z,26.57
2023-06-15T13:09:31.142Z,26.58
2023-06-15T13:10:35.504Z,26.57
2023-06-15T13:11:39.289Z,26.54
2023-06-15T13:12:44.422Z,26.55
2023-06-15T13:13:47.650Z,26.56
2023-06-15T13:14:49.885Z,26.57
2023-06-15T13:15:53.924Z,26.59
2023-06-15T13:16:56.641Z,26.60
2023-06-15T13:17:59.913Z,26.63
2023-06-15T13:19:03.687Z,26.65
2023-06-15T13:20:08.384Z,26.68
2023-06-15T13:21:12.876Z,26.71
2023-06-15T13:22:15.635Z,26.74
2023-06-15T13:23:18.867Z,26.76
2023-06-15T13:24:21.773Z,26.79
2023-06-15T13:25:24.988Z,26.79
2023-06-15T13:26:28.244Z,26.78
2023-06-15T13:27:30.603Z,26.79
2023-06-15T13:28:35.300Z,26.81
2023-06-15T13:29:37.561Z,26.83
2023-06-15T13:30:40.733Z,26.86
2023-06-15T13:31:42.969Z,26.88
2023-06-15T13:32:47.934Z,26.90
2023-06-15T13:33:50.285Z,26.91
2023-06-15T13:34:53.445Z,26.94
2023-06-15T13:35:58.472Z,26.96
2023-06-15T13:37:00.796Z,26.98
2023-06-15T13:38:03.926Z,27.00
2023-06-15T13:39:07.068Z,27.02
2023-06-15T13:40:11.811Z,27.04
2023-06-15T13:41:15.076Z,27.07
2023-06-15T13:42:17.270Z,27.09
2023-06-15T13:43:20.921Z,27.13
2023-06-15T13:44:24.585Z,27.14
2023-06-15T13:45:27.887Z,27.16
2023-06-15T13:46:31.668Z,27.18
2023-06-15T13:47:36.036Z,27.20
2023-06-15T13:48:38.270Z,27.23
2023-06-15T13:49:41.757Z,27.22
2023-06-15T13:50:44.935Z,27.22